Red Air MD82 at Miami on Jun 21st 2022, runway excursion causes gear collapse on landing

Last Update: June 23, 2022 / 20:36:09 GMT/Zulu time

Bookmark this article
Incident Facts

Date of incident
Jun 21, 2022

Classification
Accident

Flight number
L5-203

Aircraft Registration
HI1064

ICAO Type Designator
MD82

Airport ICAO Code
KMIA

A Red Air Dominicana McDonnell Douglas MD-82, registration HI1064 performing flight L5-203 from Santo Domingo (Dominican Republic) to Miami,FL (USA) with 130 passengers and 10 crew, landed on Miami's runway 09 at 17:37L (21:37Z) maintaining routine communication but suffered the collapse of its landing gear. Tower pressed the crash button and instructed the next approaches to go around. The MD-82 came to a stand still off the runway with a fire developing at the right hand wing, where a fuel spill occurred. The aircraft was evacuated via slides. Three people received minor injuries and were taken to the hospital. Emergency services quickly extinguished the fire.

Miami's Emergency Services reported they are on scene of an aircraft fire, their crews have been able to control the fire at the left hand wing and to mitigate the fuel spill. All people on board were checked for injuries, three have been hospitalized.

The airline reported the aircraft encountered technical difficulties after landing.

ADS-B Data transmitted by the aircraft suggest the aircraft was on center line of the runway until slowing below 80 knots over ground, then veered left, crossed the green between runways 09/27 and 12/30 and taxiways T8 and T taking the glideslope antenna mast for runway 30 with it and came to a stop just before runway 12/30.

The NTSB have dispatched a Go-Team to Miami to investigate the occurrence.

On Jun 23rd 2022 the NTSB reported: "The airplane experienced a collapse of the left main landing gear during landing on Runway 9, departed the runway and came to rest in a grassy area between runway 9 and 23. A post-crash fire on the right side of the airplane followed the runway excursion." The CVR and FDR were recovered.

Related NOTAMs:
!MIA 06/412 MIA NAV ILS RWY 30 GP U/S 2206220012-2207012000EST
!MIA 06/409 MIA RWY 12/30 CLSD 2206212237-2206232200
!MIA 06/410 MIA RWY 09/27 CLSD 2206212238-2206232200
!MIA 06/411 MIA TWY Q BTN TWY U AND TWY Q10 CLSD 2206212246-2206222200

Metars:
KMIA 212353Z 03008KT 10SM FEW030 SCT250 28/21 A3007 RMK AO2 SLP183 T02780211 10306 20278 58004 $=
KMIA 212253Z VRB04KT 10SM FEW030 BKN250 29/19 A3008 RMK AO2 SLP185 T02940194 $=
KMIA 212153Z 05009G16KT 10SM FEW030 FEW045 BKN250 30/16 A3008 RMK AO2 SLP187 T03000161 $=
KMIA 212053Z 05010G18KT 10SM FEW030 BKN250 30/19 A3008 RMK AO2 SLP187 CB DSNT SE AND SW MOV S 6//// T03000194 $=
KMIA 211953Z 05013G18KT 10SM FEW030 BKN250 30/21 A3010 RMK AO2 SLP191 CB DSNT SE-S T03000206 $=
KMIA 211853Z 06011G20KT 10SM SCT037 SCT110 BKN250 30/22 A3011 RMK AO2 SLP197 CB DSNT SE-S MOV SW T03000217=
KMIA 211753Z 04014G19KT 10SM SCT030 SCT085 BKN250 30/22 A3013 RMK AO2 LTG DSNT SE SLP201 CB DSNT E-SE-SW MOV S 60021 T03000222 10311 20261 58001 $=
KMIA 211653Z 07011G20KT 10SM SCT028CB SCT065 BKN085 29/24 A3013 RMK AO2 LTG DSNT E RAB15E34 SLP204 CB E-SE-SW MOV S P0021 T02890239 $=
KMIA 211633Z 05010KT 10SM -RA SCT025CB SCT060 BKN090 27/24 A3013 RMK AO2 LTG DSNT E AND S RAB15 CB E-SE-SW MOV S P0021 T02720244=
KMIA 211619Z 04011G23KT 3SM +RA BKN025CB BKN047 27/23 A3014 RMK AO2 LTG DSNT S RAB15 CB OHD MOV S P0006 T02670233=
KMIA 211553Z 03007KT 10SM SCT035CB SCT050 BKN250 31/23 A3013 RMK AO2 LTG DSNT S SLP202 CB N-NE MOV S T03060228=
KMIA 211453Z 04008KT 10SM SCT030 SCT060 BKN250 31/23 A3013 RMK AO2 SLP202 CB S T03060228 51015=
KMIA 211353Z 03008KT 10SM SCT026 BKN035 BKN250 29/24 A3012 RMK AO2 SLP198 T02940239=
KMIA 211253Z VRB05KT 10SM FEW023 FEW045 SCT250 29/24 A3010 RMK AO2 SLP192 T02890244=
Incident Facts

Date of incident
Jun 21, 2022

Classification
Accident

Flight number
L5-203

Aircraft Registration
HI1064

ICAO Type Designator
MD82

Airport ICAO Code
KMIA

Videos

This article is published under license from Avherald.com. © of text by Avherald.com.
Article source

You can read 4 more free articles without a subscription.

Subscribe now and continue reading without any limits!

Are you a subscriber?
Login
Subscribe

Read unlimited articles and receive our daily update briefing. Gain better insights into what is happening in commercial aviation safety.

Free newsletter

Want to know more and stay ahead? Get our free weekly newsletter and join 5212 existing subscribers.

By subscribing, you accept our terms and conditions and confirm that you've read our privacy policy.

Send tip

Support AeroInside by sending a small tip amount.

Newest articles

Subscribe today

Are you researching aviation incidents? Get access to AeroInside Insights, unlimited read access and receive the daily newsletter.

Pick your plan and subscribe

Partner

Blockaviation logo

A new way to document and demonstrate airworthiness compliance and aircraft value. Find out more.

Virtual Speech logo

ELITE Simulation Solutions is a leading global provider of Flight Simulation Training Devices, IFR training software as well as flight controls and related services. Find out more.

Get updates

Never miss an article from AeroInside. Subscribe to our free weekly newsletter and join 5212 existing subscribers.

By subscribing, you accept our terms and conditions and that you've read our privacy policy.

AeroInside Blog
Popular aircraft
Airbus A320
Boeing 737-800
Boeing 737-800 MAX
Popular airlines
American Airlines
United
Delta
Air Canada
Lufthansa
British Airways